sensor_id;sensor_type;location;lat;lon;timestamp;temperature;humidity
1129;DHT22;553;51.038;7.216;2023-03-15T00:01:41;3.50;99.90
1129;DHT22;553;51.038;7.216;2023-03-15T00:04:12;3.50;99.90
1129;DHT22;553;51.038;7.216;2023-03-15T00:06:39;3.40;99.90
1129;DHT22;553;51.038;7.216;2023-03-15T00:09:06;3.40;99.90
1129;DHT22;553;51.038;7.216;2023-03-15T00:11:33;3.40;99.90
1129;DHT22;553;51.038;7.216;2023-03-15T00:13:59;3.40;99.90
1129;DHT22;553;51.038;7.216;2023-03-15T00:16:28;3.40;99.90
1129;DHT22;553;51.038;7.216;2023-03-15T00:18:55;3.40;99.90
1129;DHT22;553;51.038;7.216;2023-03-15T00:21:22;3.40;99.90
1129;DHT22;553;51.038;7.216;2023-03-15T00:23:50;3.50;99.90
1129;DHT22;553;51.038;7.216;2023-03-15T00:26:17;3.50;99.90
1129;DHT22;553;51.038;7.216;2023-03-15T00:28:43;3.60;99.90
1129;DHT22;553;51.038;7.216;2023-03-15T00:31:16;3.60;99.90
1129;DHT22;553;51.038;7.216;2023-03-15T00:33:44;3.60;99.90
1129;DHT22;553;51.038;7.216;2023-03-15T00:36:11;3.60;99.90
1129;DHT22;553;51.038;7.216;2023-03-15T00:38:39;3.60;99.90
1129;DHT22;553;51.038;7.216;2023-03-15T00:41:11;3.80;99.90
1129;DHT22;553;51.038;7.216;2023-03-15T00:43:39;3.60;99.90
1129;DHT22;553;51.038;7.216;2023-03-15T00:46:06;3.70;99.90
1129;DHT22;553;51.038;7.216;2023-03-15T00:48:33;3.70;99.90
1129;DHT22;553;51.038;7.216;2023-03-15T00:53:38;3.70;99.90
1129;DHT22;553;51.038;7.216;2023-03-15T00:56:10;3.70;99.90
1129;DHT22;553;51.038;7.216;2023-03-15T00:58:38;3.70;99.90
1129;DHT22;553;51.038;7.216;2023-03-15T01:01:06;3.80;99.90
1129;DHT22;553;51.038;7.216;2023-03-15T01:03:36;3.80;99.90
1129;DHT22;553;51.038;7.216;2023-03-15T01:06:23;3.80;99.90
1129;DHT22;553;51.038;7.216;2023-03-15T01:08:51;3.90;99.90
1129;DHT22;553;51.038;7.216;2023-03-15T01:11:20;3.80;99.90
1129;DHT22;553;51.038;7.216;2023-03-15T01:13:54;3.80;99.90
1129;DHT22;553;51.038;7.216;2023-03-15T01:16:22;3.80;99.90
1129;DHT22;553;51.038;7.216;2023-03-15T01:18:49;3.80;99.90
1129;DHT22;553;51.038;7.216;2023-03-15T01:21:19;3.80;99.90
1129;DHT22;553;51.038;7.216;2023-03-15T01:23:46;3.80;99.90
1129;DHT22;553;51.038;7.216;2023-03-15T01:26:15;3.70;99.90
1129;DHT22;553;51.038;7.216;2023-03-15T01:28:43;3.70;99.90
1129;DHT22;553;51.038;7.216;2023-03-15T01:31:27;3.60;99.90
1129;DHT22;553;51.038;7.216;2023-03-15T01:33:55;3.60;99.90
1129;DHT22;553;51.038;7.216;2023-03-15T01:36:23;3.50;99.90
1129;DHT22;553;51.038;7.216;2023-03-15T01:38:50;3.50;99.90
1129;DHT22;553;51.038;7.216;2023-03-15T01:41:22;3.50;99.90
1129;DHT22;553;51.038;7.216;2023-03-15T01:43:50;3.50;99.90
1129;DHT22;553;51.038;7.216;2023-03-15T01:49:12;3.40;99.90
1129;DHT22;553;51.038;7.216;2023-03-15T01:52:00;3.30;99.90
1129;DHT22;553;51.038;7.216;2023-03-15T01:54:44;3.30;99.90
1129;DHT22;553;51.038;7.216;2023-03-15T01:57:24;3.30;99.90
1129;DHT22;553;51.038;7.216;2023-03-15T01:59:55;3.30;99.90
1129;DHT22;553;51.038;7.216;2023-03-15T02:02:24;3.30;99.90
1129;DHT22;553;51.038;7.216;2023-03-15T02:04:56;3.20;99.90
1129;DHT22;553;51.038;7.216;2023-03-15T02:07:26;3.10;99.90
1129;DHT22;553;51.038;7.216;2023-03-15T02:10:08;3.20;99.90
1129;DHT22;553;51.038;7.216;2023-03-15T02:12:41;3.30;99.90
1129;DHT22;553;51.038;7.216;2023-03-15T02:15:09;3.40;99.90
1129;DHT22;553;51.038;7.216;2023-03-15T02:17:42;3.30;99.90
1129;DHT22;553;51.038;7.216;2023-03-15T02:23:10;3.10;99.90
1129;DHT22;553;51.038;7.216;2023-03-15T02:28:33;3.00;99.90
1129;DHT22;553;51.038;7.216;2023-03-15T02:31:00;2.90;99.90
1129;DHT22;553;51.038;7.216;2023-03-15T02:36:28;2.80;99.90
1129;DHT22;553;51.038;7.216;2023-03-15T02:38:58;2.80;99.90
1129;DHT22;553;51.038;7.216;2023-03-15T02:41:36;2.80;99.90
1129;DHT22;553;51.038;7.216;2023-03-15T02:44:12;2.80;99.90
1129;DHT22;553;51.038;7.216;2023-03-15T02:46:40;2.90;99.90
1129;DHT22;553;51.038;7.216;2023-03-15T02:49:08;2.80;99.90
1129;DHT22;553;51.038;7.216;2023-03-15T02:51:35;2.80;99.90
1129;DHT22;553;51.038;7.216;2023-03-15T02:54:02;2.80;99.90
1129;DHT22;553;51.038;7.216;2023-03-15T02:56:29;2.70;99.90
1129;DHT22;553;51.038;7.216;2023-03-15T02:59:00;2.70;99.90
1129;DHT22;553;51.038;7.216;2023-03-15T03:01:27;2.80;99.90
1129;DHT22;553;51.038;7.216;2023-03-15T03:03:53;2.70;99.90
1129;DHT22;553;51.038;7.216;2023-03-15T03:06:20;2.60;99.90
1129;DHT22;553;51.038;7.216;2023-03-15T03:08:47;2.50;99.90
1129;DHT22;553;51.038;7.216;2023-03-15T03:11:17;2.50;99.90
1129;DHT22;553;51.038;7.216;2023-03-15T03:13:44;2.40;99.90
1129;DHT22;553;51.038;7.216;2023-03-15T03:16:11;2.40;99.90
1129;DHT22;553;51.038;7.216;2023-03-15T03:18:38;2.30;99.90
1129;DHT22;553;51.038;7.216;2023-03-15T03:21:06;2.40;99.90
1129;DHT22;553;51.038;7.216;2023-03-15T03:23:34;2.30;99.90
1129;DHT22;553;51.038;7.216;2023-03-15T03:26:03;2.30;99.90
1129;DHT22;553;51.038;7.216;2023-03-15T03:28:31;2.30;99.90
1129;DHT22;553;51.038;7.216;2023-03-15T03:31:00;2.30;99.90
1129;DHT22;553;51.038;7.216;2023-03-15T03:33:27;2.30;99.90
1129;DHT22;553;51.038;7.216;2023-03-15T03:35:59;2.20;99.90
1129;DHT22;553;51.038;7.216;2023-03-15T03:38:28;2.30;99.90
1129;DHT22;553;51.038;7.216;2023-03-15T03:40:58;2.30;99.90
1129;DHT22;553;51.038;7.216;2023-03-15T03:43:27;2.30;99.90
1129;DHT22;553;51.038;7.216;2023-03-15T03:45:54;2.30;99.90
1129;DHT22;553;51.038;7.216;2023-03-15T03:48:21;2.30;99.90
1129;DHT22;553;51.038;7.216;2023-03-15T03:50:48;2.20;99.90
1129;DHT22;553;51.038;7.216;2023-03-15T03:53:16;2.30;99.90
1129;DHT22;553;51.038;7.216;2023-03-15T03:55:43;2.30;99.90
1129;DHT22;553;51.038;7.216;2023-03-15T03:58:16;2.30;99.90
1129;DHT22;553;51.038;7.216;2023-03-15T04:00:50;2.30;99.90
1129;DHT22;553;51.038;7.216;2023-03-15T04:03:20;2.30;99.90
1129;DHT22;553;51.038;7.216;2023-03-15T04:05:58;2.30;99.90
1129;DHT22;553;51.038;7.216;2023-03-15T04:08:26;2.30;99.90
1129;DHT22;553;51.038;7.216;2023-03-15T04:10:55;2.20;99.90
1129;DHT22;553;51.038;7.216;2023-03-15T04:13:25;2.20;99.90
1129;DHT22;553;51.038;7.216;2023-03-15T04:15:52;2.30;99.90
1129;DHT22;553;51.038;7.216;2023-03-15T04:18:26;2.40;99.90
1129;DHT22;553;51.038;7.216;2023-03-15T04:20:53;2.40;99.90
1129;DHT22;553;51.038;7.216;2023-03-15T04:23:22;2.40;99.90
1129;DHT22;553;51.038;7.216;2023-03-15T04:26:08;2.40;99.90
1129;DHT22;553;51.038;7.216;2023-03-15T04:28:57;2.40;99.90
1129;DHT22;553;51.038;7.216;2023-03-15T04:31:43;2.30;99.90
1129;DHT22;553;51.038;7.216;2023-03-15T04:34:24;2.20;99.90
1129;DHT22;553;51.038;7.216;2023-03-15T04:37:00;2.30;99.90
1129;DHT22;553;51.038;7.216;2023-03-15T04:39:38;2.30;99.90
1129;DHT22;553;51.038;7.216;2023-03-15T04:42:24;2.30;99.90
1129;DHT22;553;51.038;7.216;2023-03-15T04:45:07;2.30;99.90
1129;DHT22;553;51.038;7.216;2023-03-15T04:47:37;2.40;99.90
1129;DHT22;553;51.038;7.216;2023-03-15T04:50:23;2.30;99.90
1129;DHT22;553;51.038;7.216;2023-03-15T04:53:08;2.30;99.90
1129;DHT22;553;51.038;7.216;2023-03-15T04:56:11;2.30;99.90
1129;DHT22;553;51.038;7.216;2023-03-15T04:58:58;2.40;99.90
1129;DHT22;553;51.038;7.216;2023-03-15T05:01:51;2.30;99.90
1129;DHT22;553;51.038;7.216;2023-03-15T05:04:28;2.40;99.90
1129;DHT22;553;51.038;7.216;2023-03-15T05:07:13;2.40;99.90
1129;DHT22;553;51.038;7.216;2023-03-15T05:09:53;2.30;99.90
1129;DHT22;553;51.038;7.216;2023-03-15T05:12:38;2.30;99.90
1129;DHT22;553;51.038;7.216;2023-03-15T05:15:23;2.20;99.90
1129;DHT22;553;51.038;7.216;2023-03-15T05:17:50;2.20;99.90
1129;DHT22;553;51.038;7.216;2023-03-15T05:20:32;2.30;99.90
1129;DHT22;553;51.038;7.216;2023-03-15T05:23:23;2.20;99.90
1129;DHT22;553;51.038;7.216;2023-03-15T05:26:00;2.10;99.90
1129;DHT22;553;51.038;7.216;2023-03-15T05:28:47;2.30;99.90
1129;DHT22;553;51.038;7.216;2023-03-15T05:31:30;2.30;99.90
1129;DHT22;553;51.038;7.216;2023-03-15T05:34:21;2.10;99.90
1129;DHT22;553;51.038;7.216;2023-03-15T05:37:06;2.10;99.90
1129;DHT22;553;51.038;7.216;2023-03-15T05:39:54;2.20;99.90
1129;DHT22;553;51.038;7.216;2023-03-15T05:42:41;2.30;99.90
1129;DHT22;553;51.038;7.216;2023-03-15T05:45:28;2.30;99.90
1129;DHT22;553;51.038;7.216;2023-03-15T05:48:06;2.20;99.90
1129;DHT22;553;51.038;7.216;2023-03-15T05:50:41;2.20;99.90
1129;DHT22;553;51.038;7.216;2023-03-15T05:53:40;2.20;99.90
1129;DHT22;553;51.038;7.216;2023-03-15T05:56:36;2.20;99.90
1129;DHT22;553;51.038;7.216;2023-03-15T05:59:15;2.20;99.90
1129;DHT22;553;51.038;7.216;2023-03-15T06:02:08;2.20;99.90
1129;DHT22;553;51.038;7.216;2023-03-15T06:04:45;2.20;99.90
1129;DHT22;553;51.038;7.216;2023-03-15T06:07:16;2.20;99.90
1129;DHT22;553;51.038;7.216;2023-03-15T06:09:43;2.20;99.90
1129;DHT22;553;51.038;7.216;2023-03-15T06:12:10;2.20;99.90
1129;DHT22;553;51.038;7.216;2023-03-15T06:14:38;2.20;99.90
1129;DHT22;553;51.038;7.216;2023-03-15T06:17:07;2.30;99.90
1129;DHT22;553;51.038;7.216;2023-03-15T06:19:34;2.20;99.90
1129;DHT22;553;51.038;7.216;2023-03-15T06:22:03;2.20;99.90
1129;DHT22;553;51.038;7.216;2023-03-15T06:24:37;2.20;99.90
1129;DHT22;553;51.038;7.216;2023-03-15T06:27:04;2.30;99.90
1129;DHT22;553;51.038;7.216;2023-03-15T06:29:33;2.20;99.90
1129;DHT22;553;51.038;7.216;2023-03-15T06:32:01;2.20;99.90
1129;DHT22;553;51.038;7.216;2023-03-15T06:34:29;2.20;99.90
1129;DHT22;553;51.038;7.216;2023-03-15T06:36:55;2.40;99.90
1129;DHT22;553;51.038;7.216;2023-03-15T06:39:22;2.30;99.90
1129;DHT22;553;51.038;7.216;2023-03-15T06:41:53;2.20;99.90
1129;DHT22;553;51.038;7.216;2023-03-15T06:44:23;2.20;99.90
1129;DHT22;553;51.038;7.216;2023-03-15T06:46:55;2.30;99.90
1129;DHT22;553;51.038;7.216;2023-03-15T06:49:22;2.30;99.90
1129;DHT22;553;51.038;7.216;2023-03-15T06:51:49;2.30;99.90
1129;DHT22;553;51.038;7.216;2023-03-15T06:54:16;2.40;99.90
1129;DHT22;553;51.038;7.216;2023-03-15T06:56:44;2.40;99.90
1129;DHT22;553;51.038;7.216;2023-03-15T06:59:10;2.40;99.90
1129;DHT22;553;51.038;7.216;2023-03-15T07:01:37;2.50;99.90
1129;DHT22;553;51.038;7.216;2023-03-15T07:04:04;2.50;99.90
1129;DHT22;553;51.038;7.216;2023-03-15T07:06:34;2.50;99.90
1129;DHT22;553;51.038;7.216;2023-03-15T07:09:02;2.50;99.90
1129;DHT22;553;51.038;7.216;2023-03-15T07:11:29;2.50;99.90
1129;DHT22;553;51.038;7.216;2023-03-15T07:13:56;2.40;99.90
1129;DHT22;553;51.038;7.216;2023-03-15T07:16:24;2.50;99.90
1129;DHT22;553;51.038;7.216;2023-03-15T07:18:51;2.40;99.90
1129;DHT22;553;51.038;7.216;2023-03-15T07:21:21;2.50;99.90
1129;DHT22;553;51.038;7.216;2023-03-15T07:23:47;2.60;99.90
1129;DHT22;553;51.038;7.216;2023-03-15T07:26:15;2.60;99.90
1129;DHT22;553;51.038;7.216;2023-03-15T07:28:41;2.60;99.90
1129;DHT22;553;51.038;7.216;2023-03-15T07:31:10;2.60;99.90
1129;DHT22;553;51.038;7.216;2023-03-15T07:33:37;2.70;99.90
1129;DHT22;553;51.038;7.216;2023-03-15T07:36:06;2.70;99.90
1129;DHT22;553;51.038;7.216;2023-03-15T07:38:33;2.60;99.90
1129;DHT22;553;51.038;7.216;2023-03-15T07:41:02;2.60;99.90
1129;DHT22;553;51.038;7.216;2023-03-15T07:43:29;2.60;99.90
1129;DHT22;553;51.038;7.216;2023-03-15T07:46:16;2.70;99.90
1129;DHT22;553;51.038;7.216;2023-03-15T07:48:43;2.80;99.90
1129;DHT22;553;51.038;7.216;2023-03-15T07:51:10;2.60;99.90
1129;DHT22;553;51.038;7.216;2023-03-15T07:53:37;2.60;99.90
1129;DHT22;553;51.038;7.216;2023-03-15T07:56:04;2.70;99.90
1129;DHT22;553;51.038;7.216;2023-03-15T07:58:31;2.70;99.90
1129;DHT22;553;51.038;7.216;2023-03-15T08:00:58;2.80;99.90
1129;DHT22;553;51.038;7.216;2023-03-15T08:03:25;2.90;99.90
1129;DHT22;553;51.038;7.216;2023-03-15T08:05:54;2.90;99.90
1129;DHT22;553;51.038;7.216;2023-03-15T08:08:24;2.90;99.90
1129;DHT22;553;51.038;7.216;2023-03-15T08:10:51;2.90;99.90
1129;DHT22;553;51.038;7.216;2023-03-15T08:13:18;2.80;99.90
1129;DHT22;553;51.038;7.216;2023-03-15T08:15:45;2.80;99.90
1129;DHT22;553;51.038;7.216;2023-03-15T08:18:13;2.90;99.90
1129;DHT22;553;51.038;7.216;2023-03-15T08:20:39;3.00;99.90
1129;DHT22;553;51.038;7.216;2023-03-15T08:23:06;3.20;99.90
1129;DHT22;553;51.038;7.216;2023-03-15T08:25:35;3.30;99.90
1129;DHT22;553;51.038;7.216;2023-03-15T08:28:06;3.30;99.90
1129;DHT22;553;51.038;7.216;2023-03-15T08:30:32;3.30;99.90
1129;DHT22;553;51.038;7.216;2023-03-15T08:32:59;3.30;99.90
1129;DHT22;553;51.038;7.216;2023-03-15T08:35:27;3.30;99.90
1129;DHT22;553;51.038;7.216;2023-03-15T08:37:54;3.30;99.90
1129;DHT22;553;51.038;7.216;2023-03-15T08:40:20;3.40;99.90
1129;DHT22;553;51.038;7.216;2023-03-15T08:42:51;3.60;99.90
1129;DHT22;553;51.038;7.216;2023-03-15T08:45:19;3.50;99.90
1129;DHT22;553;51.038;7.216;2023-03-15T08:47:46;3.40;99.90
1129;DHT22;553;51.038;7.216;2023-03-15T08:50:14;3.40;99.90
1129;DHT22;553;51.038;7.216;2023-03-15T08:52:42;3.50;99.90
1129;DHT22;553;51.038;7.216;2023-03-15T08:55:09;3.80;99.90
1129;DHT22;553;51.038;7.216;2023-03-15T08:57:40;4.20;99.90
1129;DHT22;553;51.038;7.216;2023-03-15T09:00:08;4.40;99.90
1129;DHT22;553;51.038;7.216;2023-03-15T09:02:35;4.40;99.90
1129;DHT22;553;51.038;7.216;2023-03-15T09:05:03;4.40;99.90
1129;DHT22;553;51.038;7.216;2023-03-15T09:07:32;4.20;99.90
1129;DHT22;553;51.038;7.216;2023-03-15T09:09:59;4.30;99.90
1129;DHT22;553;51.038;7.216;2023-03-15T09:12:29;4.40;99.90
1129;DHT22;553;51.038;7.216;2023-03-15T09:14:56;4.60;99.90
1129;DHT22;553;51.038;7.216;2023-03-15T09:17:22;4.70;99.90
1129;DHT22;553;51.038;7.216;2023-03-15T09:19:49;4.60;99.90
1129;DHT22;553;51.038;7.216;2023-03-15T09:22:17;4.60;99.90
1129;DHT22;553;51.038;7.216;2023-03-15T09:25:04;4.70;99.90
1129;DHT22;553;51.038;7.216;2023-03-15T09:27:30;4.60;99.90
1129;DHT22;553;51.038;7.216;2023-03-15T09:29:57;4.50;99.90
1129;DHT22;553;51.038;7.216;2023-03-15T09:32:25;4.70;99.90
1129;DHT22;553;51.038;7.216;2023-03-15T09:34:51;4.90;99.90
1129;DHT22;553;51.038;7.216;2023-03-15T09:37:18;5.20;99.90
1129;DHT22;553;51.038;7.216;2023-03-15T09:39:47;5.30;99.90
1129;DHT22;553;51.038;7.216;2023-03-15T09:45:21;5.50;99.90
1129;DHT22;553;51.038;7.216;2023-03-15T09:48:07;5.80;99.90
1129;DHT22;553;51.038;7.216;2023-03-15T09:56:35;6.60;99.90
1129;DHT22;553;51.038;7.216;2023-03-15T09:59:05;6.80;99.90
1129;DHT22;553;51.038;7.216;2023-03-15T10:01:37;6.80;99.90
1129;DHT22;553;51.038;7.216;2023-03-15T10:04:17;6.70;99.90
1129;DHT22;553;51.038;7.216;2023-03-15T10:06:52;6.60;99.90
1129;DHT22;553;51.038;7.216;2023-03-15T10:09:22;6.10;99.90
1129;DHT22;553;51.038;7.216;2023-03-15T10:12:08;6.20;99.90
1129;DHT22;553;51.038;7.216;2023-03-15T10:17:15;6.00;99.90
1129;DHT22;553;51.038;7.216;2023-03-15T10:19:49;5.80;99.90
1129;DHT22;553;51.038;7.216;2023-03-15T10:24:55;6.30;99.90
1129;DHT22;553;51.038;7.216;2023-03-15T10:27:33;6.70;99.90
1129;DHT22;553;51.038;7.216;2023-03-15T10:30:46;7.10;99.90
1129;DHT22;553;51.038;7.216;2023-03-15T10:35:40;7.40;97.10
1129;DHT22;553;51.038;7.216;2023-03-15T10:38:18;7.50;99.90
1129;DHT22;553;51.038;7.216;2023-03-15T10:43:27;7.70;96.20
1129;DHT22;553;51.038;7.216;2023-03-15T10:48:29;7.60;98.30
1129;DHT22;553;51.038;7.216;2023-03-15T10:51:02;7.70;97.40
1129;DHT22;553;51.038;7.216;2023-03-15T10:53:29;7.70;99.70
1129;DHT22;553;51.038;7.216;2023-03-15T10:55:59;8.80;94.00
1129;DHT22;553;51.038;7.216;2023-03-15T10:58:37;8.70;92.20
1129;DHT22;553;51.038;7.216;2023-03-15T11:01:23;8.60;90.70
1129;DHT22;553;51.038;7.216;2023-03-15T11:04:28;8.70;92.20
1129;DHT22;553;51.038;7.216;2023-03-15T11:07:02;8.40;89.80
1129;DHT22;553;51.038;7.216;2023-03-15T11:09:53;7.90;91.00
1129;DHT22;553;51.038;7.216;2023-03-15T11:12:28;7.80;93.70
1129;DHT22;553;51.038;7.216;2023-03-15T11:15:02;7.20;95.50
1129;DHT22;553;51.038;7.216;2023-03-15T11:17:33;6.90;97.20
1129;DHT22;553;51.038;7.216;2023-03-15T11:20:17;6.90;96.40
1129;DHT22;553;51.038;7.216;2023-03-15T11:22:45;6.70;98.70
1129;DHT22;553;51.038;7.216;2023-03-15T11:25:13;6.80;98.90
1129;DHT22;553;51.038;7.216;2023-03-15T11:27:41;6.80;97.90
1129;DHT22;553;51.038;7.216;2023-03-15T11:30:14;7.10;98.80
1129;DHT22;553;51.038;7.216;2023-03-15T11:32:43;7.20;96.80
1129;DHT22;553;51.038;7.216;2023-03-15T11:35:13;7.20;96.20
1129;DHT22;553;51.038;7.216;2023-03-15T11:37:53;7.30;93.20
1129;DHT22;553;51.038;7.216;2023-03-15T11:40:42;7.40;91.10
1129;DHT22;553;51.038;7.216;2023-03-15T11:43:30;7.50;90.60
1129;DHT22;553;51.038;7.216;2023-03-15T11:48:49;7.40;89.50
1129;DHT22;553;51.038;7.216;2023-03-15T11:51:18;7.30;90.00
1129;DHT22;553;51.038;7.216;2023-03-15T11:54:00;7.30;91.20
1129;DHT22;553;51.038;7.216;2023-03-15T11:56:46;7.70;92.30
1129;DHT22;553;51.038;7.216;2023-03-15T11:59:33;7.50;90.70
1129;DHT22;553;51.038;7.216;2023-03-15T12:04:42;7.20;93.70
1129;DHT22;553;51.038;7.216;2023-03-15T12:10:17;7.00;96.50
1129;DHT22;553;51.038;7.216;2023-03-15T12:12:45;7.00;95.10
1129;DHT22;553;51.038;7.216;2023-03-15T12:17:50;7.10;96.40
1129;DHT22;553;51.038;7.216;2023-03-15T12:20:19;7.10;96.70
1129;DHT22;553;51.038;7.216;2023-03-15T12:25:38;7.00;95.10
1129;DHT22;553;51.038;7.216;2023-03-15T12:28:38;6.90;93.90
1129;DHT22;553;51.038;7.216;2023-03-15T12:31:09;7.10;91.90
1129;DHT22;553;51.038;7.216;2023-03-15T12:33:46;7.20;90.50
1129;DHT22;553;51.038;7.216;2023-03-15T12:36:38;7.10;90.20
1129;DHT22;553;51.038;7.216;2023-03-15T12:41:42;7.50;87.70
1129;DHT22;553;51.038;7.216;2023-03-15T12:46:59;7.60;88.70
1129;DHT22;553;51.038;7.216;2023-03-15T12:49:30;7.70;87.60
1129;DHT22;553;51.038;7.216;2023-03-15T12:51:59;7.80;89.50
1129;DHT22;553;51.038;7.216;2023-03-15T12:54:36;7.90;89.30
1129;DHT22;553;51.038;7.216;2023-03-15T12:57:05;7.90;86.80
1129;DHT22;553;51.038;7.216;2023-03-15T12:59:49;7.90;91.20
1129;DHT22;553;51.038;7.216;2023-03-15T13:02:34;7.90;88.10
1129;DHT22;553;51.038;7.216;2023-03-15T13:05:21;7.90;88.80
1129;DHT22;553;51.038;7.216;2023-03-15T13:08:04;8.00;86.80
1129;DHT22;553;51.038;7.216;2023-03-15T13:19:02;8.60;85.80
1129;DHT22;553;51.038;7.216;2023-03-15T13:21:38;8.30;85.90
1129;DHT22;553;51.038;7.216;2023-03-15T13:24:17;8.20;85.40
1129;DHT22;553;51.038;7.216;2023-03-15T13:26:54;8.10;85.90
1129;DHT22;553;51.038;7.216;2023-03-15T13:29:30;7.80;84.20
1129;DHT22;553;51.038;7.216;2023-03-15T13:32:02;7.80;85.90
1129;DHT22;553;51.038;7.216;2023-03-15T13:34:32;7.90;85.70
1129;DHT22;553;51.038;7.216;2023-03-15T13:37:00;7.90;85.40
1129;DHT22;553;51.038;7.216;2023-03-15T13:39:33;7.90;84.60
1129;DHT22;553;51.038;7.216;2023-03-15T13:42:16;7.90;84.60
1129;DHT22;553;51.038;7.216;2023-03-15T13:44:43;7.80;84.60
1129;DHT22;553;51.038;7.216;2023-03-15T13:47:19;7.80;85.90
1129;DHT22;553;51.038;7.216;2023-03-15T13:49:51;9.90;96.90
1129;DHT22;553;51.038;7.216;2023-03-15T13:52:18;9.90;79.90
1129;DHT22;553;51.038;7.216;2023-03-15T13:54:45;9.40;81.30
1129;DHT22;553;51.038;7.216;2023-03-15T13:57:15;9.20;81.60
1129;DHT22;553;51.038;7.216;2023-03-15T14:02:52;8.60;80.50
1129;DHT22;553;51.038;7.216;2023-03-15T14:05:31;8.50;81.90
1129;DHT22;553;51.038;7.216;2023-03-15T14:08:05;8.30;81.00
1129;DHT22;553;51.038;7.216;2023-03-15T14:10:34;8.30;81.50
1129;DHT22;553;51.038;7.216;2023-03-15T14:13:22;8.40;81.50
1129;DHT22;553;51.038;7.216;2023-03-15T14:15:50;8.40;81.30
1129;DHT22;553;51.038;7.216;2023-03-15T14:18:23;8.40;80.70
1129;DHT22;553;51.038;7.216;2023-03-15T14:20:57;8.50;80.40
1129;DHT22;553;51.038;7.216;2023-03-15T14:23:27;8.50;81.30
1129;DHT22;553;51.038;7.216;2023-03-15T14:26:15;8.40;79.90
1129;DHT22;553;51.038;7.216;2023-03-15T14:29:06;8.50;82.40
1129;DHT22;553;51.038;7.216;2023-03-15T14:31:41;8.40;79.60
1129;DHT22;553;51.038;7.216;2023-03-15T14:34:24;8.40;80.90
1129;DHT22;553;51.038;7.216;2023-03-15T14:36:59;8.40;78.90
1129;DHT22;553;51.038;7.216;2023-03-15T14:39:37;8.40;80.40
1129;DHT22;553;51.038;7.216;2023-03-15T14:42:06;8.50;78.90
1129;DHT22;553;51.038;7.216;2023-03-15T14:44:35;8.50;78.70
1129;DHT22;553;51.038;7.216;2023-03-15T14:47:11;8.50;79.20
1129;DHT22;553;51.038;7.216;2023-03-15T14:49:39;8.50;78.90
1129;DHT22;553;51.038;7.216;2023-03-15T14:52:07;8.40;77.70
1129;DHT22;553;51.038;7.216;2023-03-15T14:54:34;8.40;77.70
1129;DHT22;553;51.038;7.216;2023-03-15T14:57:00;8.50;77.80
1129;DHT22;553;51.038;7.216;2023-03-15T14:59:27;8.40;77.50
1129;DHT22;553;51.038;7.216;2023-03-15T15:01:56;8.50;78.20
1129;DHT22;553;51.038;7.216;2023-03-15T15:04:30;8.60;79.00
1129;DHT22;553;51.038;7.216;2023-03-15T15:06:58;8.50;77.80
1129;DHT22;553;51.038;7.216;2023-03-15T15:09:26;8.50;79.50
1129;DHT22;553;51.038;7.216;2023-03-15T15:11:54;8.50;78.40
1129;DHT22;553;51.038;7.216;2023-03-15T15:14:21;8.40;78.50
1129;DHT22;553;51.038;7.216;2023-03-15T15:16:48;8.40;79.60
1129;DHT22;553;51.038;7.216;2023-03-15T15:19:16;8.40;77.50
1129;DHT22;553;51.038;7.216;2023-03-15T15:21:44;8.50;77.10
1129;DHT22;553;51.038;7.216;2023-03-15T15:24:15;8.40;78.10
1129;DHT22;553;51.038;7.216;2023-03-15T15:26:44;8.40;77.90
1129;DHT22;553;51.038;7.216;2023-03-15T15:29:12;8.40;78.00
1129;DHT22;553;51.038;7.216;2023-03-15T15:31:40;8.50;75.80
1129;DHT22;553;51.038;7.216;2023-03-15T15:34:07;8.40;75.30
1129;DHT22;553;51.038;7.216;2023-03-15T15:36:40;8.20;75.60
1129;DHT22;553;51.038;7.216;2023-03-15T15:39:21;8.20;74.50
1129;DHT22;553;51.038;7.216;2023-03-15T15:41:49;8.30;76.60
1129;DHT22;553;51.038;7.216;2023-03-15T15:44:18;8.40;75.00
1129;DHT22;553;51.038;7.216;2023-03-15T15:46:45;8.40;75.00
1129;DHT22;553;51.038;7.216;2023-03-15T15:49:12;8.40;76.90
1129;DHT22;553;51.038;7.216;2023-03-15T15:51:44;8.40;75.60
1129;DHT22;553;51.038;7.216;2023-03-15T15:54:15;8.40;74.60
1129;DHT22;553;51.038;7.216;2023-03-15T15:56:54;8.40;76.30
1129;DHT22;553;51.038;7.216;2023-03-15T15:59:21;8.50;76.60
1129;DHT22;553;51.038;7.216;2023-03-15T16:01:51;8.50;76.00
1129;DHT22;553;51.038;7.216;2023-03-15T16:04:27;8.30;76.00
1129;DHT22;553;51.038;7.216;2023-03-15T16:06:59;8.20;77.10
1129;DHT22;553;51.038;7.216;2023-03-15T16:09:27;8.20;78.70
1129;DHT22;553;51.038;7.216;2023-03-15T16:11:56;8.30;78.50
1129;DHT22;553;51.038;7.216;2023-03-15T16:14:23;8.20;78.10
1129;DHT22;553;51.038;7.216;2023-03-15T16:16:50;8.30;77.70
1129;DHT22;553;51.038;7.216;2023-03-15T16:19:17;8.10;77.30
1129;DHT22;553;51.038;7.216;2023-03-15T16:21:45;8.10;77.40
1129;DHT22;553;51.038;7.216;2023-03-15T16:24:17;7.90;77.30
1129;DHT22;553;51.038;7.216;2023-03-15T16:26:47;7.90;77.90
1129;DHT22;553;51.038;7.216;2023-03-15T16:29:20;8.60;86.40
1129;DHT22;553;51.038;7.216;2023-03-15T16:31:48;9.00;75.40
1129;DHT22;553;51.038;7.216;2023-03-15T16:34:17;8.80;74.90
1129;DHT22;553;51.038;7.216;2023-03-15T16:36:46;8.60;75.30
1129;DHT22;553;51.038;7.216;2023-03-15T16:39:15;8.60;76.50
1129;DHT22;553;51.038;7.216;2023-03-15T16:41:42;8.50;75.80
1129;DHT22;553;51.038;7.216;2023-03-15T16:44:14;8.40;76.60
1129;DHT22;553;51.038;7.216;2023-03-15T16:46:41;8.50;82.10
1129;DHT22;553;51.038;7.216;2023-03-15T16:49:08;11.10;75.00
1129;DHT22;553;51.038;7.216;2023-03-15T16:51:37;10.50;73.00
1129;DHT22;553;51.038;7.216;2023-03-15T16:54:04;9.90;74.50
1129;DHT22;553;51.038;7.216;2023-03-15T16:56:47;9.30;75.80
1129;DHT22;553;51.038;7.216;2023-03-15T16:59:16;9.00;80.10
1129;DHT22;553;51.038;7.216;2023-03-15T17:01:46;8.60;79.30
1129;DHT22;553;51.038;7.216;2023-03-15T17:04:14;8.40;80.60
1129;DHT22;553;51.038;7.216;2023-03-15T17:06:42;8.00;82.10
1129;DHT22;553;51.038;7.216;2023-03-15T17:09:20;7.60;83.40
1129;DHT22;553;51.038;7.216;2023-03-15T17:11:48;7.60;86.20
1129;DHT22;553;51.038;7.216;2023-03-15T17:14:26;8.10;83.60
1129;DHT22;553;51.038;7.216;2023-03-15T17:16:55;7.70;84.70
1129;DHT22;553;51.038;7.216;2023-03-15T17:19:21;7.50;85.20
1129;DHT22;553;51.038;7.216;2023-03-15T17:21:49;7.40;86.10
1129;DHT22;553;51.038;7.216;2023-03-15T17:24:17;7.40;86.80
1129;DHT22;553;51.038;7.216;2023-03-15T17:26:44;7.40;87.60
1129;DHT22;553;51.038;7.216;2023-03-15T17:29:14;7.30;87.00
1129;DHT22;553;51.038;7.216;2023-03-15T17:31:41;7.10;87.20
1129;DHT22;553;51.038;7.216;2023-03-15T17:34:10;6.90;88.10
1129;DHT22;553;51.038;7.216;2023-03-15T17:36:36;6.90;88.90
1129;DHT22;553;51.038;7.216;2023-03-15T17:39:04;6.90;89.30
1129;DHT22;553;51.038;7.216;2023-03-15T17:41:34;6.80;90.10
1129;DHT22;553;51.038;7.216;2023-03-15T17:44:03;6.70;90.60
1129;DHT22;553;51.038;7.216;2023-03-15T17:46:30;6.60;92.00
1129;DHT22;553;51.038;7.216;2023-03-15T17:48:59;6.70;95.20
1129;DHT22;553;51.038;7.216;2023-03-15T17:51:29;7.20;92.40
1129;DHT22;553;51.038;7.216;2023-03-15T17:53:57;7.10;91.30
1129;DHT22;553;51.038;7.216;2023-03-15T17:56:26;6.90;91.70
1129;DHT22;553;51.038;7.216;2023-03-15T17:58:54;6.60;92.70
1129;DHT22;553;51.038;7.216;2023-03-15T18:01:23;6.50;93.30
1129;DHT22;553;51.038;7.216;2023-03-15T18:03:52;6.40;93.90
1129;DHT22;553;51.038;7.216;2023-03-15T18:06:20;6.40;93.50
1129;DHT22;553;51.038;7.216;2023-03-15T18:08:48;6.40;94.00
1129;DHT22;553;51.038;7.216;2023-03-15T18:11:28;6.20;94.20
1129;DHT22;553;51.038;7.216;2023-03-15T18:13:57;6.10;94.10